sensor_id;sensor_type;location;lat;lon;timestamp;P1;durP1;ratioP1;P2;durP2;ratioP2
25663;SDS011;13522;50.018;20.014;2023-11-21T00:01:40;15.03;;;7.53;;
25663;SDS011;13522;50.018;20.014;2023-11-21T00:04:52;12.13;;;6.93;;
25663;SDS011;13522;50.018;20.014;2023-11-21T00:08:04;13.20;;;6.78;;
25663;SDS011;13522;50.018;20.014;2023-11-21T00:11:16;10.93;;;6.48;;
25663;SDS011;13522;50.018;20.014;2023-11-21T00:14:29;10.45;;;7.28;;
25663;SDS011;13522;50.018;20.014;2023-11-21T00:17:42;12.70;;;6.33;;
25663;SDS011;13522;50.018;20.014;2023-11-21T00:20:54;11.05;;;6.65;;
25663;SDS011;13522;50.018;20.014;2023-11-21T00:24:08;13.93;;;7.28;;
25663;SDS011;13522;50.018;20.014;2023-11-21T00:27:21;14.38;;;6.95;;
25663;SDS011;13522;50.018;20.014;2023-11-21T00:30:34;9.75;;;6.63;;
25663;SDS011;13522;50.018;20.014;2023-11-21T00:33:46;10.05;;;5.90;;
25663;SDS011;13522;50.018;20.014;2023-11-21T00:36:59;9.00;;;6.23;;
25663;SDS011;13522;50.018;20.014;2023-11-21T00:40:12;10.13;;;6.18;;
25663;SDS011;13522;50.018;20.014;2023-11-21T00:43:25;10.48;;;5.98;;
25663;SDS011;13522;50.018;20.014;2023-11-21T00:46:38;9.68;;;5.85;;
25663;SDS011;13522;50.018;20.014;2023-11-21T00:49:50;11.95;;;5.73;;
25663;SDS011;13522;50.018;20.014;2023-11-21T00:53:02;10.60;;;6.48;;
25663;SDS011;13522;50.018;20.014;2023-11-21T00:56:15;9.18;;;6.68;;
25663;SDS011;13522;50.018;20.014;2023-11-21T00:59:27;13.83;;;6.65;;
25663;SDS011;13522;50.018;20.014;2023-11-21T01:02:39;11.58;;;6.65;;
25663;SDS011;13522;50.018;20.014;2023-11-21T01:05:53;12.70;;;6.88;;
25663;SDS011;13522;50.018;20.014;2023-11-21T01:09:05;8.78;;;5.83;;
25663;SDS011;13522;50.018;20.014;2023-11-21T01:12:17;14.43;;;6.70;;
25663;SDS011;13522;50.018;20.014;2023-11-21T01:15:29;11.18;;;6.38;;
25663;SDS011;13522;50.018;20.014;2023-11-21T01:18:42;8.93;;;5.13;;
25663;SDS011;13522;50.018;20.014;2023-11-21T01:21:53;8.98;;;5.73;;
25663;SDS011;13522;50.018;20.014;2023-11-21T01:25:07;9.80;;;5.93;;
25663;SDS011;13522;50.018;20.014;2023-11-21T01:28:20;7.25;;;5.88;;
25663;SDS011;13522;50.018;20.014;2023-11-21T01:31:33;8.90;;;6.18;;
25663;SDS011;13522;50.018;20.014;2023-11-21T01:34:46;9.48;;;6.23;;
25663;SDS011;13522;50.018;20.014;2023-11-21T01:37:59;10.65;;;7.20;;
25663;SDS011;13522;50.018;20.014;2023-11-21T01:41:12;13.55;;;7.60;;
25663;SDS011;13522;50.018;20.014;2023-11-21T01:44:24;17.93;;;7.58;;
25663;SDS011;13522;50.018;20.014;2023-11-21T01:47:36;11.60;;;7.15;;
25663;SDS011;13522;50.018;20.014;2023-11-21T01:50:50;13.28;;;7.53;;
25663;SDS011;13522;50.018;20.014;2023-11-21T01:54:02;15.28;;;7.80;;
25663;SDS011;13522;50.018;20.014;2023-11-21T01:57:20;11.45;;;6.90;;
25663;SDS011;13522;50.018;20.014;2023-11-21T02:00:32;13.95;;;7.40;;
25663;SDS011;13522;50.018;20.014;2023-11-21T02:03:45;17.05;;;7.48;;
25663;SDS011;13522;50.018;20.014;2023-11-21T02:06:57;14.18;;;7.18;;
25663;SDS011;13522;50.018;20.014;2023-11-21T02:10:11;14.75;;;7.20;;
25663;SDS011;13522;50.018;20.014;2023-11-21T02:13:25;12.55;;;6.93;;
25663;SDS011;13522;50.018;20.014;2023-11-21T02:16:37;11.35;;;6.65;;
25663;SDS011;13522;50.018;20.014;2023-11-21T02:19:52;12.80;;;7.35;;
25663;SDS011;13522;50.018;20.014;2023-11-21T02:23:04;12.10;;;7.63;;
25663;SDS011;13522;50.018;20.014;2023-11-21T02:26:17;14.33;;;6.50;;
25663;SDS011;13522;50.018;20.014;2023-11-21T02:29:30;11.98;;;6.80;;
25663;SDS011;13522;50.018;20.014;2023-11-21T02:32:42;10.55;;;6.75;;
25663;SDS011;13522;50.018;20.014;2023-11-21T02:35:54;12.85;;;7.30;;
25663;SDS011;13522;50.018;20.014;2023-11-21T02:39:06;10.33;;;6.63;;
25663;SDS011;13522;50.018;20.014;2023-11-21T02:42:18;12.58;;;6.03;;
25663;SDS011;13522;50.018;20.014;2023-11-21T02:45:30;10.93;;;6.38;;
25663;SDS011;13522;50.018;20.014;2023-11-21T02:48:43;12.80;;;6.10;;
25663;SDS011;13522;50.018;20.014;2023-11-21T02:51:55;12.78;;;6.88;;
25663;SDS011;13522;50.018;20.014;2023-11-21T02:55:08;13.38;;;6.05;;
25663;SDS011;13522;50.018;20.014;2023-11-21T02:58:20;10.25;;;6.13;;
25663;SDS011;13522;50.018;20.014;2023-11-21T03:01:33;11.43;;;6.13;;
25663;SDS011;13522;50.018;20.014;2023-11-21T03:04:45;13.10;;;5.85;;
25663;SDS011;13522;50.018;20.014;2023-11-21T03:07:58;11.58;;;5.80;;
25663;SDS011;13522;50.018;20.014;2023-11-21T03:11:10;10.95;;;5.50;;
25663;SDS011;13522;50.018;20.014;2023-11-21T03:14:22;12.25;;;5.88;;
25663;SDS011;13522;50.018;20.014;2023-11-21T03:17:34;9.20;;;5.63;;
25663;SDS011;13522;50.018;20.014;2023-11-21T03:20:46;9.98;;;5.80;;
25663;SDS011;13522;50.018;20.014;2023-11-21T03:24:00;10.80;;;5.90;;
25663;SDS011;13522;50.018;20.014;2023-11-21T03:27:13;8.13;;;5.03;;
25663;SDS011;13522;50.018;20.014;2023-11-21T03:30:25;10.83;;;5.73;;
25663;SDS011;13522;50.018;20.014;2023-11-21T03:33:37;11.73;;;5.15;;
25663;SDS011;13522;50.018;20.014;2023-11-21T03:36:49;10.23;;;5.53;;
25663;SDS011;13522;50.018;20.014;2023-11-21T03:40:03;10.90;;;5.33;;
25663;SDS011;13522;50.018;20.014;2023-11-21T03:43:18;11.23;;;5.15;;
25663;SDS011;13522;50.018;20.014;2023-11-21T03:46:30;10.95;;;5.00;;
25663;SDS011;13522;50.018;20.014;2023-11-21T03:49:42;9.63;;;4.85;;
25663;SDS011;13522;50.018;20.014;2023-11-21T03:52:54;14.03;;;4.73;;
25663;SDS011;13522;50.018;20.014;2023-11-21T03:56:07;9.08;;;4.65;;
25663;SDS011;13522;50.018;20.014;2023-11-21T03:59:20;10.95;;;4.60;;
25663;SDS011;13522;50.018;20.014;2023-11-21T04:02:32;8.63;;;5.28;;
25663;SDS011;13522;50.018;20.014;2023-11-21T04:05:45;8.05;;;4.78;;
25663;SDS011;13522;50.018;20.014;2023-11-21T04:08:57;6.98;;;4.60;;
25663;SDS011;13522;50.018;20.014;2023-11-21T04:12:09;10.20;;;5.03;;
25663;SDS011;13522;50.018;20.014;2023-11-21T04:15:21;10.23;;;4.93;;
25663;SDS011;13522;50.018;20.014;2023-11-21T04:18:33;9.08;;;5.23;;
25663;SDS011;13522;50.018;20.014;2023-11-21T04:21:46;11.08;;;5.50;;
25663;SDS011;13522;50.018;20.014;2023-11-21T04:24:58;9.98;;;5.18;;
25663;SDS011;13522;50.018;20.014;2023-11-21T04:28:10;10.40;;;5.53;;
25663;SDS011;13522;50.018;20.014;2023-11-21T04:31:23;9.85;;;5.70;;
25663;SDS011;13522;50.018;20.014;2023-11-21T04:34:36;9.10;;;5.50;;
25663;SDS011;13522;50.018;20.014;2023-11-21T04:37:48;14.40;;;5.95;;
25663;SDS011;13522;50.018;20.014;2023-11-21T04:41:01;7.35;;;4.75;;
25663;SDS011;13522;50.018;20.014;2023-11-21T04:44:13;13.30;;;6.03;;
25663;SDS011;13522;50.018;20.014;2023-11-21T04:50:25;9.05;;;5.70;;
25663;SDS011;13522;50.018;20.014;2023-11-21T04:53:37;11.73;;;6.25;;
25663;SDS011;13522;50.018;20.014;2023-11-21T04:56:49;22.85;;;16.05;;
25663;SDS011;13522;50.018;20.014;2023-11-21T05:00:03;13.58;;;6.53;;
25663;SDS011;13522;50.018;20.014;2023-11-21T05:03:17;11.70;;;6.35;;
25663;SDS011;13522;50.018;20.014;2023-11-21T05:06:30;11.83;;;6.55;;
25663;SDS011;13522;50.018;20.014;2023-11-21T05:09:42;12.83;;;6.05;;
25663;SDS011;13522;50.018;20.014;2023-11-21T05:12:54;13.03;;;6.38;;
25663;SDS011;13522;50.018;20.014;2023-11-21T05:16:07;13.48;;;6.00;;
25663;SDS011;13522;50.018;20.014;2023-11-21T05:19:19;22.78;;;13.18;;
25663;SDS011;13522;50.018;20.014;2023-11-21T05:22:31;11.18;;;7.23;;
25663;SDS011;13522;50.018;20.014;2023-11-21T05:25:44;14.23;;;7.35;;
25663;SDS011;13522;50.018;20.014;2023-11-21T05:28:56;10.48;;;6.13;;
25663;SDS011;13522;50.018;20.014;2023-11-21T05:32:08;9.98;;;6.45;;
25663;SDS011;13522;50.018;20.014;2023-11-21T05:35:21;13.70;;;6.43;;
25663;SDS011;13522;50.018;20.014;2023-11-21T05:38:33;11.60;;;7.10;;
25663;SDS011;13522;50.018;20.014;2023-11-21T05:41:45;13.83;;;6.95;;
25663;SDS011;13522;50.018;20.014;2023-11-21T05:44:58;15.50;;;7.45;;
25663;SDS011;13522;50.018;20.014;2023-11-21T05:48:13;14.83;;;7.78;;
25663;SDS011;13522;50.018;20.014;2023-11-21T05:51:25;12.73;;;8.03;;
25663;SDS011;13522;50.018;20.014;2023-11-21T05:54:37;14.25;;;7.93;;
25663;SDS011;13522;50.018;20.014;2023-11-21T05:57:49;17.00;;;8.65;;
25663;SDS011;13522;50.018;20.014;2023-11-21T06:01:01;17.65;;;8.88;;
25663;SDS011;13522;50.018;20.014;2023-11-21T06:04:17;18.05;;;9.03;;
25663;SDS011;13522;50.018;20.014;2023-11-21T06:07:30;15.98;;;9.08;;
25663;SDS011;13522;50.018;20.014;2023-11-21T06:10:42;16.18;;;8.23;;
25663;SDS011;13522;50.018;20.014;2023-11-21T06:13:54;14.38;;;9.18;;
25663;SDS011;13522;50.018;20.014;2023-11-21T06:17:06;15.00;;;8.78;;
25663;SDS011;13522;50.018;20.014;2023-11-21T06:20:19;15.90;;;10.00;;
25663;SDS011;13522;50.018;20.014;2023-11-21T06:23:31;15.40;;;9.48;;
25663;SDS011;13522;50.018;20.014;2023-11-21T06:26:43;20.18;;;11.23;;
25663;SDS011;13522;50.018;20.014;2023-11-21T06:29:55;17.78;;;10.60;;
25663;SDS011;13522;50.018;20.014;2023-11-21T06:33:07;16.73;;;9.88;;
25663;SDS011;13522;50.018;20.014;2023-11-21T06:36:20;18.70;;;10.43;;
25663;SDS011;13522;50.018;20.014;2023-11-21T06:39:32;14.93;;;9.10;;
25663;SDS011;13522;50.018;20.014;2023-11-21T06:42:44;19.08;;;10.10;;
25663;SDS011;13522;50.018;20.014;2023-11-21T06:45:56;16.03;;;9.90;;
25663;SDS011;13522;50.018;20.014;2023-11-21T06:49:09;19.25;;;10.58;;
25663;SDS011;13522;50.018;20.014;2023-11-21T06:52:20;15.88;;;9.58;;
25663;SDS011;13522;50.018;20.014;2023-11-21T06:55:33;16.45;;;9.80;;
25663;SDS011;13522;50.018;20.014;2023-11-21T06:58:46;16.38;;;9.85;;
25663;SDS011;13522;50.018;20.014;2023-11-21T07:01:58;17.15;;;10.60;;
25663;SDS011;13522;50.018;20.014;2023-11-21T07:05:11;16.43;;;10.10;;
25663;SDS011;13522;50.018;20.014;2023-11-21T07:08:25;18.55;;;10.98;;
25663;SDS011;13522;50.018;20.014;2023-11-21T07:11:37;18.43;;;11.48;;
25663;SDS011;13522;50.018;20.014;2023-11-21T07:14:49;17.20;;;11.85;;
25663;SDS011;13522;50.018;20.014;2023-11-21T07:18:02;15.50;;;10.28;;
25663;SDS011;13522;50.018;20.014;2023-11-21T07:21:14;17.15;;;10.20;;
25663;SDS011;13522;50.018;20.014;2023-11-21T07:24:26;18.33;;;10.23;;
25663;SDS011;13522;50.018;20.014;2023-11-21T07:27:38;15.48;;;9.75;;
25663;SDS011;13522;50.018;20.014;2023-11-21T07:30:50;17.33;;;10.35;;
25663;SDS011;13522;50.018;20.014;2023-11-21T07:34:04;19.30;;;9.60;;
25663;SDS011;13522;50.018;20.014;2023-11-21T07:37:16;13.43;;;9.23;;
25663;SDS011;13522;50.018;20.014;2023-11-21T07:43:28;17.03;;;9.70;;
25663;SDS011;13522;50.018;20.014;2023-11-21T07:46:40;17.23;;;9.88;;
25663;SDS011;13522;50.018;20.014;2023-11-21T07:49:54;14.50;;;9.00;;
25663;SDS011;13522;50.018;20.014;2023-11-21T07:53:07;18.03;;;9.43;;
25663;SDS011;13522;50.018;20.014;2023-11-21T07:56:19;13.68;;;9.05;;
25663;SDS011;13522;50.018;20.014;2023-11-21T07:59:31;16.55;;;9.98;;
25663;SDS011;13522;50.018;20.014;2023-11-21T08:02:43;17.10;;;10.25;;
25663;SDS011;13522;50.018;20.014;2023-11-21T08:05:55;14.60;;;9.55;;
25663;SDS011;13522;50.018;20.014;2023-11-21T08:09:07;15.43;;;10.08;;
25663;SDS011;13522;50.018;20.014;2023-11-21T08:12:21;20.83;;;10.43;;
25663;SDS011;13522;50.018;20.014;2023-11-21T08:15:33;14.98;;;10.70;;
25663;SDS011;13522;50.018;20.014;2023-11-21T08:18:45;18.15;;;11.15;;
25663;SDS011;13522;50.018;20.014;2023-11-21T08:21:59;19.45;;;11.53;;
25663;SDS011;13522;50.018;20.014;2023-11-21T08:25:12;15.08;;;11.70;;
25663;SDS011;13522;50.018;20.014;2023-11-21T08:28:25;20.85;;;13.75;;
25663;SDS011;13522;50.018;20.014;2023-11-21T08:31:37;23.20;;;14.70;;
25663;SDS011;13522;50.018;20.014;2023-11-21T08:34:51;23.50;;;15.78;;
25663;SDS011;13522;50.018;20.014;2023-11-21T08:38:04;23.00;;;14.68;;
25663;SDS011;13522;50.018;20.014;2023-11-21T08:41:16;23.20;;;14.85;;
25663;SDS011;13522;50.018;20.014;2023-11-21T08:44:31;23.48;;;13.73;;
25663;SDS011;13522;50.018;20.014;2023-11-21T08:47:44;20.38;;;13.48;;
25663;SDS011;13522;50.018;20.014;2023-11-21T08:50:57;27.45;;;13.58;;
25663;SDS011;13522;50.018;20.014;2023-11-21T08:57:09;22.28;;;13.95;;
25663;SDS011;13522;50.018;20.014;2023-11-21T09:00:21;25.18;;;13.13;;
25663;SDS011;13522;50.018;20.014;2023-11-21T09:03:33;18.03;;;12.35;;
25663;SDS011;13522;50.018;20.014;2023-11-21T09:06:45;17.55;;;11.75;;
25663;SDS011;13522;50.018;20.014;2023-11-21T09:09:57;18.30;;;11.78;;
25663;SDS011;13522;50.018;20.014;2023-11-21T09:13:11;20.40;;;12.00;;
25663;SDS011;13522;50.018;20.014;2023-11-21T09:16:25;17.83;;;11.75;;
25663;SDS011;13522;50.018;20.014;2023-11-21T09:19:38;19.28;;;12.48;;
25663;SDS011;13522;50.018;20.014;2023-11-21T09:22:53;23.15;;;12.65;;
25663;SDS011;13522;50.018;20.014;2023-11-21T09:26:05;24.33;;;12.90;;
25663;SDS011;13522;50.018;20.014;2023-11-21T09:29:19;21.23;;;12.30;;
25663;SDS011;13522;50.018;20.014;2023-11-21T09:32:31;25.13;;;13.73;;
25663;SDS011;13522;50.018;20.014;2023-11-21T09:35:45;21.63;;;14.95;;
25663;SDS011;13522;50.018;20.014;2023-11-21T09:38:57;22.70;;;13.88;;
25663;SDS011;13522;50.018;20.014;2023-11-21T09:42:12;23.28;;;14.05;;
25663;SDS011;13522;50.018;20.014;2023-11-21T09:45:31;20.50;;;13.33;;
25663;SDS011;13522;50.018;20.014;2023-11-21T09:48:45;20.73;;;13.95;;
25663;SDS011;13522;50.018;20.014;2023-11-21T09:52:01;20.35;;;14.38;;
25663;SDS011;13522;50.018;20.014;2023-11-21T09:55:13;21.55;;;14.23;;
25663;SDS011;13522;50.018;20.014;2023-11-21T09:58:28;24.03;;;15.15;;
25663;SDS011;13522;50.018;20.014;2023-11-21T10:01:41;24.88;;;15.15;;
25663;SDS011;13522;50.018;20.014;2023-11-21T10:04:54;24.68;;;13.58;;
25663;SDS011;13522;50.018;20.014;2023-11-21T10:08:09;24.30;;;13.98;;
25663;SDS011;13522;50.018;20.014;2023-11-21T10:11:22;18.50;;;13.43;;
25663;SDS011;13522;50.018;20.014;2023-11-21T10:14:35;18.35;;;14.33;;
25663;SDS011;13522;50.018;20.014;2023-11-21T10:17:51;18.90;;;13.75;;
25663;SDS011;13522;50.018;20.014;2023-11-21T10:21:05;23.60;;;14.70;;
25663;SDS011;13522;50.018;20.014;2023-11-21T10:24:17;23.75;;;14.05;;
25663;SDS011;13522;50.018;20.014;2023-11-21T10:27:29;23.73;;;13.65;;
25663;SDS011;13522;50.018;20.014;2023-11-21T10:30:43;28.90;;;13.45;;
25663;SDS011;13522;50.018;20.014;2023-11-21T10:33:57;16.55;;;12.23;;
25663;SDS011;13522;50.018;20.014;2023-11-21T10:37:24;19.60;;;12.63;;
25663;SDS011;13522;50.018;20.014;2023-11-21T10:40:38;17.05;;;12.43;;
25663;SDS011;13522;50.018;20.014;2023-11-21T10:47:11;16.58;;;9.90;;
25663;SDS011;13522;50.018;20.014;2023-11-21T10:50:26;12.88;;;9.28;;
25663;SDS011;13522;50.018;20.014;2023-11-21T10:53:39;18.35;;;9.95;;
25663;SDS011;13522;50.018;20.014;2023-11-21T10:56:56;15.55;;;9.05;;
25663;SDS011;13522;50.018;20.014;2023-11-21T11:00:10;15.63;;;9.35;;
25663;SDS011;13522;50.018;20.014;2023-11-21T11:03:28;17.88;;;9.33;;
25663;SDS011;13522;50.018;20.014;2023-11-21T11:06:42;19.63;;;10.65;;
25663;SDS011;13522;50.018;20.014;2023-11-21T11:09:57;17.65;;;10.03;;
25663;SDS011;13522;50.018;20.014;2023-11-21T11:13:12;19.38;;;9.73;;
25663;SDS011;13522;50.018;20.014;2023-11-21T11:16:25;15.93;;;9.63;;
25663;SDS011;13522;50.018;20.014;2023-11-21T11:19:39;16.85;;;9.70;;
25663;SDS011;13522;50.018;20.014;2023-11-21T11:22:56;14.50;;;9.25;;
25663;SDS011;13522;50.018;20.014;2023-11-21T11:26:24;17.13;;;10.55;;
25663;SDS011;13522;50.018;20.014;2023-11-21T11:29:41;17.80;;;10.08;;
25663;SDS011;13522;50.018;20.014;2023-11-21T11:33:03;18.15;;;10.05;;
25663;SDS011;13522;50.018;20.014;2023-11-21T11:36:18;14.55;;;9.48;;
25663;SDS011;13522;50.018;20.014;2023-11-21T11:39:37;16.20;;;9.20;;
25663;SDS011;13522;50.018;20.014;2023-11-21T11:42:57;19.30;;;10.00;;
25663;SDS011;13522;50.018;20.014;2023-11-21T11:46:11;17.50;;;9.88;;
25663;SDS011;13522;50.018;20.014;2023-11-21T11:49:25;20.38;;;9.55;;
25663;SDS011;13522;50.018;20.014;2023-11-21T11:52:41;16.00;;;9.95;;
25663;SDS011;13522;50.018;20.014;2023-11-21T11:56:06;12.93;;;8.90;;
25663;SDS011;13522;50.018;20.014;2023-11-21T12:03:25;17.20;;;9.28;;
25663;SDS011;13522;50.018;20.014;2023-11-21T12:06:38;13.85;;;8.55;;
25663;SDS011;13522;50.018;20.014;2023-11-21T12:09:51;13.05;;;7.88;;
25663;SDS011;13522;50.018;20.014;2023-11-21T12:13:05;14.45;;;7.38;;
25663;SDS011;13522;50.018;20.014;2023-11-21T12:16:18;12.00;;;7.15;;
25663;SDS011;13522;50.018;20.014;2023-11-21T12:19:31;13.03;;;6.40;;
25663;SDS011;13522;50.018;20.014;2023-11-21T12:22:43;10.28;;;6.90;;
25663;SDS011;13522;50.018;20.014;2023-11-21T12:25:57;10.65;;;5.95;;
25663;SDS011;13522;50.018;20.014;2023-11-21T12:29:08;10.28;;;5.20;;
25663;SDS011;13522;50.018;20.014;2023-11-21T12:32:21;9.90;;;5.10;;
25663;SDS011;13522;50.018;20.014;2023-11-21T12:35:34;10.40;;;5.53;;
25663;SDS011;13522;50.018;20.014;2023-11-21T12:38:48;9.53;;;5.63;;
25663;SDS011;13522;50.018;20.014;2023-11-21T12:42:00;10.18;;;5.73;;
25663;SDS011;13522;50.018;20.014;2023-11-21T12:45:21;11.58;;;6.23;;
25663;SDS011;13522;50.018;20.014;2023-11-21T12:51:40;15.15;;;6.68;;
25663;SDS011;13522;50.018;20.014;2023-11-21T12:57:55;11.75;;;6.40;;
25663;SDS011;13522;50.018;20.014;2023-11-21T13:01:12;11.85;;;6.58;;
25663;SDS011;13522;50.018;20.014;2023-11-21T13:04:30;12.30;;;7.43;;
25663;SDS011;13522;50.018;20.014;2023-11-21T13:10:57;14.48;;;7.95;;
25663;SDS011;13522;50.018;20.014;2023-11-21T13:14:11;19.08;;;8.05;;
25663;SDS011;13522;50.018;20.014;2023-11-21T13:17:23;15.35;;;7.38;;
25663;SDS011;13522;50.018;20.014;2023-11-21T13:20:36;13.55;;;7.78;;
25663;SDS011;13522;50.018;20.014;2023-11-21T13:26:51;12.20;;;7.73;;
25663;SDS011;13522;50.018;20.014;2023-11-21T13:33:04;12.18;;;7.03;;
25663;SDS011;13522;50.018;20.014;2023-11-21T13:36:21;16.90;;;7.45;;
25663;SDS011;13522;50.018;20.014;2023-11-21T13:39:36;11.70;;;7.65;;
25663;SDS011;13522;50.018;20.014;2023-11-21T13:42:52;18.77;;;8.27;;
25663;SDS011;13522;50.018;20.014;2023-11-21T13:46:07;15.98;;;8.08;;
25663;SDS011;13522;50.018;20.014;2023-11-21T13:49:22;14.50;;;7.95;;
25663;SDS011;13522;50.018;20.014;2023-11-21T13:52:36;13.33;;;7.58;;
25663;SDS011;13522;50.018;20.014;2023-11-21T13:55:49;13.08;;;7.75;;
25663;SDS011;13522;50.018;20.014;2023-11-21T13:59:02;15.95;;;8.93;;
25663;SDS011;13522;50.018;20.014;2023-11-21T14:02:19;15.88;;;8.20;;
25663;SDS011;13522;50.018;20.014;2023-11-21T14:05:33;15.20;;;8.38;;
25663;SDS011;13522;50.018;20.014;2023-11-21T14:08:47;12.30;;;7.85;;
25663;SDS011;13522;50.018;20.014;2023-11-21T14:12:00;12.95;;;8.08;;
25663;SDS011;13522;50.018;20.014;2023-11-21T14:15:16;17.83;;;9.08;;
25663;SDS011;13522;50.018;20.014;2023-11-21T14:18:28;13.98;;;8.20;;
25663;SDS011;13522;50.018;20.014;2023-11-21T14:21:42;14.28;;;7.90;;
25663;SDS011;13522;50.018;20.014;2023-11-21T14:24:57;12.73;;;7.90;;
25663;SDS011;13522;50.018;20.014;2023-11-21T14:28:09;18.38;;;9.20;;
25663;SDS011;13522;50.018;20.014;2023-11-21T14:31:21;16.83;;;10.43;;
25663;SDS011;13522;50.018;20.014;2023-11-21T14:34:34;16.73;;;10.43;;
25663;SDS011;13522;50.018;20.014;2023-11-21T14:37:48;13.93;;;8.43;;
25663;SDS011;13522;50.018;20.014;2023-11-21T14:41:02;16.23;;;9.70;;
25663;SDS011;13522;50.018;20.014;2023-11-21T14:44:15;16.48;;;9.38;;
25663;SDS011;13522;50.018;20.014;2023-11-21T14:47:30;14.43;;;9.13;;
25663;SDS011;13522;50.018;20.014;2023-11-21T14:50:45;17.00;;;8.38;;
25663;SDS011;13522;50.018;20.014;2023-11-21T14:54:00;16.38;;;9.48;;
25663;SDS011;13522;50.018;20.014;2023-11-21T14:57:16;16.68;;;9.53;;
25663;SDS011;13522;50.018;20.014;2023-11-21T15:06:28;39.55;;;23.85;;
25663;SDS011;13522;50.018;20.014;2023-11-21T15:12:41;19.05;;;10.93;;
25663;SDS011;13522;50.018;20.014;2023-11-21T15:15:53;16.80;;;10.15;;
25663;SDS011;13522;50.018;20.014;2023-11-21T15:19:07;15.73;;;10.35;;
25663;SDS011;13522;50.018;20.014;2023-11-21T15:22:22;15.50;;;9.85;;
25663;SDS011;13522;50.018;20.014;2023-11-21T15:25:35;15.28;;;10.83;;
25663;SDS011;13522;50.018;20.014;2023-11-21T15:28:47;17.73;;;10.20;;
25663;SDS011;13522;50.018;20.014;2023-11-21T15:31:59;17.50;;;10.35;;
25663;SDS011;13522;50.018;20.014;2023-11-21T15:35:13;18.88;;;10.73;;
25663;SDS011;13522;50.018;20.014;2023-11-21T15:38:25;18.28;;;10.23;;
25663;SDS011;13522;50.018;20.014;2023-11-21T15:41:38;16.00;;;9.80;;
25663;SDS011;13522;50.018;20.014;2023-11-21T15:44:51;19.43;;;10.98;;
25663;SDS011;13522;50.018;20.014;2023-11-21T15:48:04;30.13;;;18.15;;
25663;SDS011;13522;50.018;20.014;2023-11-21T15:51:17;31.15;;;20.18;;
25663;SDS011;13522;50.018;20.014;2023-11-21T15:57:29;18.85;;;11.63;;
25663;SDS011;13522;50.018;20.014;2023-11-21T16:00:42;17.98;;;10.78;;
25663;SDS011;13522;50.018;20.014;2023-11-21T16:03:54;19.05;;;11.40;;
25663;SDS011;13522;50.018;20.014;2023-11-21T16:07:08;18.90;;;11.53;;
25663;SDS011;13522;50.018;20.014;2023-11-21T16:10:20;19.30;;;12.80;;
25663;SDS011;13522;50.018;20.014;2023-11-21T16:13:33;21.38;;;13.98;;
25663;SDS011;13522;50.018;20.014;2023-11-21T16:16:47;22.23;;;13.73;;
25663;SDS011;13522;50.018;20.014;2023-11-21T16:19:59;22.03;;;13.68;;
25663;SDS011;13522;50.018;20.014;2023-11-21T16:23:14;25.13;;;14.78;;
25663;SDS011;13522;50.018;20.014;2023-11-21T16:26:26;23.18;;;15.63;;
25663;SDS011;13522;50.018;20.014;2023-11-21T16:32:40;21.35;;;14.50;;
25663;SDS011;13522;50.018;20.014;2023-11-21T16:35:52;23.43;;;15.18;;
25663;SDS011;13522;50.018;20.014;2023-11-21T16:42:08;21.03;;;15.05;;
25663;SDS011;13522;50.018;20.014;2023-11-21T16:45:22;24.58;;;15.15;;
25663;SDS011;13522;50.018;20.014;2023-11-21T16:48:33;27.63;;;15.05;;
25663;SDS011;13522;50.018;20.014;2023-11-21T16:51:46;24.13;;;14.88;;
25663;SDS011;13522;50.018;20.014;2023-11-21T16:55:02;23.38;;;14.10;;
25663;SDS011;13522;50.018;20.014;2023-11-21T16:58:16;20.50;;;14.70;;
25663;SDS011;13522;50.018;20.014;2023-11-21T17:01:24;23.95;;;15.33;;
25663;SDS011;13522;50.018;20.014;2023-11-21T17:13:36;21.75;;;14.15;;
25663;SDS011;13522;50.018;20.014;2023-11-21T17:16:49;22.80;;;14.48;;
25663;SDS011;13522;50.018;20.014;2023-11-21T17:20:02;25.40;;;14.95;;
25663;SDS011;13522;50.018;20.014;2023-11-21T17:23:15;23.15;;;15.33;;
25663;SDS011;13522;50.018;20.014;2023-11-21T17:26:27;25.65;;;16.23;;
25663;SDS011;13522;50.018;20.014;2023-11-21T17:29:39;23.48;;;16.58;;
25663;SDS011;13522;50.018;20.014;2023-11-21T17:32:54;23.18;;;15.48;;
25663;SDS011;13522;50.018;20.014;2023-11-21T17:36:07;25.10;;;16.35;;
25663;SDS011;13522;50.018;20.014;2023-11-21T17:39:20;24.88;;;16.70;;
25663;SDS011;13522;50.018;20.014;2023-11-21T17:42:30;24.53;;;15.73;;
25663;SDS011;13522;50.018;20.014;2023-11-21T17:45:46;25.53;;;16.83;;
25663;SDS011;13522;50.018;20.014;2023-11-21T17:48:59;23.70;;;15.88;;
25663;SDS011;13522;50.018;20.014;2023-11-21T17:52:13;28.40;;;16.93;;
25663;SDS011;13522;50.018;20.014;2023-11-21T17:55:24;26.20;;;15.75;;
25663;SDS011;13522;50.018;20.014;2023-11-21T17:58:37;28.75;;;16.65;;
25663;SDS011;13522;50.018;20.014;2023-11-21T18:01:50;29.45;;;17.15;;
25663;SDS011;13522;50.018;20.014;2023-11-21T18:05:01;29.53;;;16.33;;
25663;SDS011;13522;50.018;20.014;2023-11-21T18:08:06;60.75;;;38.33;;
25663;SDS011;13522;50.018;20.014;2023-11-21T18:11:14;48.93;;;30.45;;
25663;SDS011;13522;50.018;20.014;2023-11-21T18:14:27;27.25;;;17.58;;
25663;SDS011;13522;50.018;20.014;2023-11-21T18:17:42;24.58;;;13.68;;
25663;SDS011;13522;50.018;20.014;2023-11-21T18:20:55;17.03;;;10.98;;
25663;SDS011;13522;50.018;20.014;2023-11-21T18:24:09;16.90;;;9.43;;
25663;SDS011;13522;50.018;20.014;2023-11-21T18:27:20;14.28;;;9.30;;
25663;SDS011;13522;50.018;20.014;2023-11-21T18:30:32;12.53;;;8.63;;
25663;SDS011;13522;50.018;20.014;2023-11-21T18:33:45;16.75;;;11.70;;
25663;SDS011;13522;50.018;20.014;2023-11-21T18:36:58;21.85;;;11.90;;
25663;SDS011;13522;50.018;20.014;2023-11-21T18:40:11;27.10;;;13.60;;
25663;SDS011;13522;50.018;20.014;2023-11-21T18:43:25;19.88;;;13.00;;
25663;SDS011;13522;50.018;20.014;2023-11-21T18:46:39;24.45;;;14.50;;
25663;SDS011;13522;50.018;20.014;2023-11-21T18:53:04;26.78;;;14.38;;
25663;SDS011;13522;50.018;20.014;2023-11-21T18:56:20;23.90;;;14.08;;
25663;SDS011;13522;50.018;20.014;2023-11-21T18:59:35;23.45;;;15.38;;
25663;SDS011;13522;50.018;20.014;2023-11-21T19:02:48;33.93;;;21.55;;
25663;SDS011;13522;50.018;20.014;2023-11-21T19:05:56;21.13;;;13.08;;
25663;SDS011;13522;50.018;20.014;2023-11-21T19:09:09;21.35;;;13.10;;
25663;SDS011;13522;50.018;20.014;2023-11-21T19:12:21;18.83;;;12.50;;
25663;SDS011;13522;50.018;20.014;2023-11-21T19:15:36;18.65;;;11.80;;
25663;SDS011;13522;50.018;20.014;2023-11-21T19:18:48;17.88;;;11.95;;
25663;SDS011;13522;50.018;20.014;2023-11-21T19:22:02;20.38;;;12.45;;
25663;SDS011;13522;50.018;20.014;2023-11-21T19:25:13;20.88;;;11.88;;
25663;SDS011;13522;50.018;20.014;2023-11-21T19:28:27;18.58;;;11.73;;
25663;SDS011;13522;50.018;20.014;2023-11-21T19:31:38;21.70;;;12.73;;
25663;SDS011;13522;50.018;20.014;2023-11-21T19:34:52;20.55;;;11.13;;
25663;SDS011;13522;50.018;20.014;2023-11-21T19:38:05;16.08;;;9.88;;
25663;SDS011;13522;50.018;20.014;2023-11-21T19:41:21;16.28;;;9.80;;
25663;SDS011;13522;50.018;20.014;2023-11-21T19:44:34;17.55;;;10.15;;